sensor_id;sensor_type;location;lat;lon;timestamp;temperature;humidity
46562;DHT22;32289;42.688;23.330;2023-04-10T00:00:28;7.00;99.90
46562;DHT22;32289;42.688;23.330;2023-04-10T00:04:10;7.10;99.90
46562;DHT22;32289;42.688;23.330;2023-04-10T00:07:51;7.10;99.90
46562;DHT22;32289;42.688;23.330;2023-04-10T00:11:33;7.10;99.90
46562;DHT22;32289;42.688;23.330;2023-04-10T00:15:13;6.90;99.90
46562;DHT22;32289;42.688;23.330;2023-04-10T00:18:54;7.00;99.90
46562;DHT22;32289;42.688;23.330;2023-04-10T00:22:35;6.90;99.90
46562;DHT22;32289;42.688;23.330;2023-04-10T00:26:16;7.00;99.90
46562;DHT22;32289;42.688;23.330;2023-04-10T00:29:57;6.90;99.90
46562;DHT22;32289;42.688;23.330;2023-04-10T00:33:37;7.00;99.90
46562;DHT22;32289;42.688;23.330;2023-04-10T00:37:18;6.90;99.90
46562;DHT22;32289;42.688;23.330;2023-04-10T00:40:59;6.90;99.90
46562;DHT22;32289;42.688;23.330;2023-04-10T00:44:40;7.00;99.90
46562;DHT22;32289;42.688;23.330;2023-04-10T00:48:20;7.00;99.90
46562;DHT22;32289;42.688;23.330;2023-04-10T00:52:01;7.00;99.90
46562;DHT22;32289;42.688;23.330;2023-04-10T00:55:43;7.00;99.90
46562;DHT22;32289;42.688;23.330;2023-04-10T00:59:24;6.90;99.90
46562;DHT22;32289;42.688;23.330;2023-04-10T01:03:07;6.90;99.90
46562;DHT22;32289;42.688;23.330;2023-04-10T01:06:52;6.80;99.90
46562;DHT22;32289;42.688;23.330;2023-04-10T01:10:59;6.80;99.90
46562;DHT22;32289;42.688;23.330;2023-04-10T01:18:36;6.90;99.90
46562;DHT22;32289;42.688;23.330;2023-04-10T01:22:20;6.80;99.90
46562;DHT22;32289;42.688;23.330;2023-04-10T01:26:07;6.70;99.90
46562;DHT22;32289;42.688;23.330;2023-04-10T01:29:52;6.80;99.90
46562;DHT22;32289;42.688;23.330;2023-04-10T01:33:40;6.80;99.90
46562;DHT22;32289;42.688;23.330;2023-04-10T01:37:30;6.80;99.90
46562;DHT22;32289;42.688;23.330;2023-04-10T01:41:11;6.90;99.90
46562;DHT22;32289;42.688;23.330;2023-04-10T01:44:54;6.80;99.90
46562;DHT22;32289;42.688;23.330;2023-04-10T01:48:36;6.80;99.90
46562;DHT22;32289;42.688;23.330;2023-04-10T01:52:17;6.70;99.90
46562;DHT22;32289;42.688;23.330;2023-04-10T01:55:58;6.70;99.90
46562;DHT22;32289;42.688;23.330;2023-04-10T01:59:40;6.70;99.90
46562;DHT22;32289;42.688;23.330;2023-04-10T02:03:20;6.70;99.90
46562;DHT22;32289;42.688;23.330;2023-04-10T02:07:25;6.70;99.90
46562;DHT22;32289;42.688;23.330;2023-04-10T02:11:11;6.70;99.90
46562;DHT22;32289;42.688;23.330;2023-04-10T02:14:54;6.60;99.90
46562;DHT22;32289;42.688;23.330;2023-04-10T02:18:38;6.60;99.90
46562;DHT22;32289;42.688;23.330;2023-04-10T02:22:20;6.60;99.90
46562;DHT22;32289;42.688;23.330;2023-04-10T02:26:11;6.60;99.90
46562;DHT22;32289;42.688;23.330;2023-04-10T02:29:52;6.70;99.90
46562;DHT22;32289;42.688;23.330;2023-04-10T02:33:32;6.60;99.90
46562;DHT22;32289;42.688;23.330;2023-04-10T02:37:13;6.50;99.90
46562;DHT22;32289;42.688;23.330;2023-04-10T02:40:54;6.60;99.90
46562;DHT22;32289;42.688;23.330;2023-04-10T02:44:34;6.60;99.90
46562;DHT22;32289;42.688;23.330;2023-04-10T02:48:15;6.60;99.90
46562;DHT22;32289;42.688;23.330;2023-04-10T02:51:56;6.60;99.90
46562;DHT22;32289;42.688;23.330;2023-04-10T02:55:36;6.60;99.90
46562;DHT22;32289;42.688;23.330;2023-04-10T02:59:17;6.60;99.90
46562;DHT22;32289;42.688;23.330;2023-04-10T03:02:58;6.50;99.90
46562;DHT22;32289;42.688;23.330;2023-04-10T03:06:38;6.50;99.90
46562;DHT22;32289;42.688;23.330;2023-04-10T03:10:19;6.40;99.90
46562;DHT22;32289;42.688;23.330;2023-04-10T03:14:00;6.40;99.90
46562;DHT22;32289;42.688;23.330;2023-04-10T03:17:41;6.30;99.90
46562;DHT22;32289;42.688;23.330;2023-04-10T03:21:21;6.30;99.90
46562;DHT22;32289;42.688;23.330;2023-04-10T03:25:02;6.20;99.90
46562;DHT22;32289;42.688;23.330;2023-04-10T03:28:43;6.10;99.90
46562;DHT22;32289;42.688;23.330;2023-04-10T03:32:24;6.10;99.90
46562;DHT22;32289;42.688;23.330;2023-04-10T03:36:05;6.10;99.90
46562;DHT22;32289;42.688;23.330;2023-04-10T03:39:46;6.00;99.90
46562;DHT22;32289;42.688;23.330;2023-04-10T03:43:26;5.90;99.90
46562;DHT22;32289;42.688;23.330;2023-04-10T03:47:08;5.90;99.90
46562;DHT22;32289;42.688;23.330;2023-04-10T03:50:49;5.90;99.90
46562;DHT22;32289;42.688;23.330;2023-04-10T03:54:30;5.80;99.90
46562;DHT22;32289;42.688;23.330;2023-04-10T03:58:10;5.80;99.90
46562;DHT22;32289;42.688;23.330;2023-04-10T04:01:52;5.60;99.90
46562;DHT22;32289;42.688;23.330;2023-04-10T04:05:33;5.60;99.90
46562;DHT22;32289;42.688;23.330;2023-04-10T04:09:14;5.60;99.90
46562;DHT22;32289;42.688;23.330;2023-04-10T04:12:54;5.70;99.90
46562;DHT22;32289;42.688;23.330;2023-04-10T04:16:35;5.70;99.90
46562;DHT22;32289;42.688;23.330;2023-04-10T04:20:16;5.80;99.90
46562;DHT22;32289;42.688;23.330;2023-04-10T04:23:56;5.90;99.90
46562;DHT22;32289;42.688;23.330;2023-04-10T04:27:37;5.90;99.90
46562;DHT22;32289;42.688;23.330;2023-04-10T04:31:18;6.00;99.90
46562;DHT22;32289;42.688;23.330;2023-04-10T04:34:58;6.10;99.90
46562;DHT22;32289;42.688;23.330;2023-04-10T04:38:39;6.60;99.90
46562;DHT22;32289;42.688;23.330;2023-04-10T04:42:19;7.50;99.90
46562;DHT22;32289;42.688;23.330;2023-04-10T04:46:00;8.00;99.90
46562;DHT22;32289;42.688;23.330;2023-04-10T04:49:41;7.10;99.90
46562;DHT22;32289;42.688;23.330;2023-04-10T04:53:21;6.60;99.90
46562;DHT22;32289;42.688;23.330;2023-04-10T04:57:02;6.60;99.90
46562;DHT22;32289;42.688;23.330;2023-04-10T05:00:43;6.50;99.90
46562;DHT22;32289;42.688;23.330;2023-04-10T05:04:24;6.70;99.90
46562;DHT22;32289;42.688;23.330;2023-04-10T05:08:04;6.90;99.90
46562;DHT22;32289;42.688;23.330;2023-04-10T05:11:45;6.80;99.90
46562;DHT22;32289;42.688;23.330;2023-04-10T05:15:26;7.00;99.90
46562;DHT22;32289;42.688;23.330;2023-04-10T05:19:07;7.00;99.90
46562;DHT22;32289;42.688;23.330;2023-04-10T05:22:47;7.20;99.90
46562;DHT22;32289;42.688;23.330;2023-04-10T05:26:28;7.20;99.90
46562;DHT22;32289;42.688;23.330;2023-04-10T05:30:09;7.40;99.90
46562;DHT22;32289;42.688;23.330;2023-04-10T05:33:50;7.50;99.90
46562;DHT22;32289;42.688;23.330;2023-04-10T05:37:31;7.80;99.90
46562;DHT22;32289;42.688;23.330;2023-04-10T05:41:12;10.00;99.90
46562;DHT22;32289;42.688;23.330;2023-04-10T05:44:53;11.70;99.70
46562;DHT22;32289;42.688;23.330;2023-04-10T05:48:38;11.70;98.40
46562;DHT22;32289;42.688;23.330;2023-04-10T05:52:18;11.50;93.30
46562;DHT22;32289;42.688;23.330;2023-04-10T05:55:59;10.00;99.90
46562;DHT22;32289;42.688;23.330;2023-04-10T05:59:45;9.70;99.90
46562;DHT22;32289;42.688;23.330;2023-04-10T06:03:26;9.80;99.90
46562;DHT22;32289;42.688;23.330;2023-04-10T06:07:15;12.20;92.90
46562;DHT22;32289;42.688;23.330;2023-04-10T06:11:15;11.80;90.70
46562;DHT22;32289;42.688;23.330;2023-04-10T06:14:55;11.50;91.30
46562;DHT22;32289;42.688;23.330;2023-04-10T06:18:37;10.50;96.40
46562;DHT22;32289;42.688;23.330;2023-04-10T06:22:18;9.40;99.90
46562;DHT22;32289;42.688;23.330;2023-04-10T06:25:59;10.00;99.90
46562;DHT22;32289;42.688;23.330;2023-04-10T06:29:40;9.80;99.90
46562;DHT22;32289;42.688;23.330;2023-04-10T06:33:21;10.90;99.90
46562;DHT22;32289;42.688;23.330;2023-04-10T06:37:02;10.70;97.00
46562;DHT22;32289;42.688;23.330;2023-04-10T06:40:42;9.60;99.90
46562;DHT22;32289;42.688;23.330;2023-04-10T06:44:23;9.50;99.90
46562;DHT22;32289;42.688;23.330;2023-04-10T06:48:05;9.10;99.90
46562;DHT22;32289;42.688;23.330;2023-04-10T06:51:46;9.00;99.90
46562;DHT22;32289;42.688;23.330;2023-04-10T06:55:28;9.00;99.90
46562;DHT22;32289;42.688;23.330;2023-04-10T06:59:08;9.00;99.90
46562;DHT22;32289;42.688;23.330;2023-04-10T07:02:49;9.00;99.90
46562;DHT22;32289;42.688;23.330;2023-04-10T07:06:30;9.00;99.90
46562;DHT22;32289;42.688;23.330;2023-04-10T07:10:12;9.30;99.90
46562;DHT22;32289;42.688;23.330;2023-04-10T07:13:57;9.70;99.90
46562;DHT22;32289;42.688;23.330;2023-04-10T07:17:40;9.40;99.90
46562;DHT22;32289;42.688;23.330;2023-04-10T07:21:21;9.30;99.90
46562;DHT22;32289;42.688;23.330;2023-04-10T07:25:02;9.20;99.90
46562;DHT22;32289;42.688;23.330;2023-04-10T07:28:43;9.00;99.90
46562;DHT22;32289;42.688;23.330;2023-04-10T07:32:25;8.90;99.90
46562;DHT22;32289;42.688;23.330;2023-04-10T07:36:06;9.20;99.90
46562;DHT22;32289;42.688;23.330;2023-04-10T07:39:50;9.40;99.90
46562;DHT22;32289;42.688;23.330;2023-04-10T07:43:34;10.00;99.90
46562;DHT22;32289;42.688;23.330;2023-04-10T07:47:15;9.80;99.90
46562;DHT22;32289;42.688;23.330;2023-04-10T07:50:55;9.50;99.90
46562;DHT22;32289;42.688;23.330;2023-04-10T07:54:36;9.50;99.90
46562;DHT22;32289;42.688;23.330;2023-04-10T07:58:17;10.10;99.90
46562;DHT22;32289;42.688;23.330;2023-04-10T08:02:00;10.10;99.60
46562;DHT22;32289;42.688;23.330;2023-04-10T08:05:41;10.20;98.90
46562;DHT22;32289;42.688;23.330;2023-04-10T08:09:22;10.10;98.40
46562;DHT22;32289;42.688;23.330;2023-04-10T08:13:02;9.70;99.90
46562;DHT22;32289;42.688;23.330;2023-04-10T08:16:43;9.70;99.90
46562;DHT22;32289;42.688;23.330;2023-04-10T08:20:24;9.80;99.90
46562;DHT22;32289;42.688;23.330;2023-04-10T08:24:05;10.00;99.90
46562;DHT22;32289;42.688;23.330;2023-04-10T08:27:45;10.30;99.50
46562;DHT22;32289;42.688;23.330;2023-04-10T08:31:27;10.70;99.20
46562;DHT22;32289;42.688;23.330;2023-04-10T08:35:08;10.50;97.80
46562;DHT22;32289;42.688;23.330;2023-04-10T08:38:49;10.10;99.20
46562;DHT22;32289;42.688;23.330;2023-04-10T08:42:30;10.20;99.80
46562;DHT22;32289;42.688;23.330;2023-04-10T08:46:12;10.20;99.50
46562;DHT22;32289;42.688;23.330;2023-04-10T08:49:55;10.10;99.90
46562;DHT22;32289;42.688;23.330;2023-04-10T08:53:39;10.60;98.40
46562;DHT22;32289;42.688;23.330;2023-04-10T08:57:23;10.00;98.40
46562;DHT22;32289;42.688;23.330;2023-04-10T09:01:05;10.40;98.40
46562;DHT22;32289;42.688;23.330;2023-04-10T09:04:51;10.60;97.50
46562;DHT22;32289;42.688;23.330;2023-04-10T09:08:34;10.50;93.10
46562;DHT22;32289;42.688;23.330;2023-04-10T09:12:15;10.30;92.80
46562;DHT22;32289;42.688;23.330;2023-04-10T09:15:59;10.40;92.30
46562;DHT22;32289;42.688;23.330;2023-04-10T09:19:48;11.10;90.80
46562;DHT22;32289;42.688;23.330;2023-04-10T09:23:29;11.20;85.80
46562;DHT22;32289;42.688;23.330;2023-04-10T09:27:11;10.80;89.10
46562;DHT22;32289;42.688;23.330;2023-04-10T09:31:27;10.50;90.20
46562;DHT22;32289;42.688;23.330;2023-04-10T09:35:11;10.70;89.00
46562;DHT22;32289;42.688;23.330;2023-04-10T09:38:53;10.70;88.50
46562;DHT22;32289;42.688;23.330;2023-04-10T09:42:35;10.50;88.60
46562;DHT22;32289;42.688;23.330;2023-04-10T09:46:26;10.60;91.20
46562;DHT22;32289;42.688;23.330;2023-04-10T09:50:08;10.60;90.20
46562;DHT22;32289;42.688;23.330;2023-04-10T09:53:48;10.20;88.50
46562;DHT22;32289;42.688;23.330;2023-04-10T09:57:31;10.00;90.20
46562;DHT22;32289;42.688;23.330;2023-04-10T10:01:12;10.00;86.80
46562;DHT22;32289;42.688;23.330;2023-04-10T10:04:53;10.50;85.30
46562;DHT22;32289;42.688;23.330;2023-04-10T10:08:35;11.70;80.00
46562;DHT22;32289;42.688;23.330;2023-04-10T10:12:27;11.10;80.90
46562;DHT22;32289;42.688;23.330;2023-04-10T10:20:06;12.20;74.70
46562;DHT22;32289;42.688;23.330;2023-04-10T10:23:48;11.80;75.00
46562;DHT22;32289;42.688;23.330;2023-04-10T10:27:37;11.90;75.20
46562;DHT22;32289;42.688;23.330;2023-04-10T10:31:20;11.10;77.70
46562;DHT22;32289;42.688;23.330;2023-04-10T10:35:04;11.60;77.40
46562;DHT22;32289;42.688;23.330;2023-04-10T10:47:28;11.20;76.90
46562;DHT22;32289;42.688;23.330;2023-04-10T10:51:09;11.10;78.70
46562;DHT22;32289;42.688;23.330;2023-04-10T10:54:51;11.40;78.10
46562;DHT22;32289;42.688;23.330;2023-04-10T10:58:48;11.40;78.50
46562;DHT22;32289;42.688;23.330;2023-04-10T11:02:29;11.90;77.00
46562;DHT22;32289;42.688;23.330;2023-04-10T11:06:19;12.60;74.10
46562;DHT22;32289;42.688;23.330;2023-04-10T11:10:00;12.10;72.10
46562;DHT22;32289;42.688;23.330;2023-04-10T11:17:50;13.20;69.00
46562;DHT22;32289;42.688;23.330;2023-04-10T11:21:31;14.20;65.00
46562;DHT22;32289;42.688;23.330;2023-04-10T11:25:13;13.60;65.40
46562;DHT22;32289;42.688;23.330;2023-04-10T11:28:54;13.00;70.20
46562;DHT22;32289;42.688;23.330;2023-04-10T11:32:42;12.20;73.70
46562;DHT22;32289;42.688;23.330;2023-04-10T11:36:23;12.10;72.00
46562;DHT22;32289;42.688;23.330;2023-04-10T11:40:04;12.00;73.10
46562;DHT22;32289;42.688;23.330;2023-04-10T11:43:50;12.30;73.70
46562;DHT22;32289;42.688;23.330;2023-04-10T11:47:31;13.20;71.00
46562;DHT22;32289;42.688;23.330;2023-04-10T11:51:13;13.40;68.40
46562;DHT22;32289;42.688;23.330;2023-04-10T11:54:54;13.60;68.40
46562;DHT22;32289;42.688;23.330;2023-04-10T11:58:35;13.90;67.90
46562;DHT22;32289;42.688;23.330;2023-04-10T12:02:16;12.50;70.30
46562;DHT22;32289;42.688;23.330;2023-04-10T12:05:57;11.60;73.40
46562;DHT22;32289;42.688;23.330;2023-04-10T12:09:37;12.20;75.80
46562;DHT22;32289;42.688;23.330;2023-04-10T12:13:25;12.10;73.70
46562;DHT22;32289;42.688;23.330;2023-04-10T12:17:09;11.70;76.80
46562;DHT22;32289;42.688;23.330;2023-04-10T12:20:50;11.80;78.00
46562;DHT22;32289;42.688;23.330;2023-04-10T12:24:46;8.30;99.90
46562;DHT22;32289;42.688;23.330;2023-04-10T12:28:27;6.30;99.90
46562;DHT22;32289;42.688;23.330;2023-04-10T12:32:08;6.90;99.90
46562;DHT22;32289;42.688;23.330;2023-04-10T12:35:49;7.00;99.90
46562;DHT22;32289;42.688;23.330;2023-04-10T12:39:31;7.80;99.90
46562;DHT22;32289;42.688;23.330;2023-04-10T12:43:50;7.80;99.90
46562;DHT22;32289;42.688;23.330;2023-04-10T12:47:29;7.10;99.90
46562;DHT22;32289;42.688;23.330;2023-04-10T12:51:10;6.90;99.90
46562;DHT22;32289;42.688;23.330;2023-04-10T12:54:51;7.30;99.90
46562;DHT22;32289;42.688;23.330;2023-04-10T12:58:32;7.60;99.90
46562;DHT22;32289;42.688;23.330;2023-04-10T13:02:12;8.10;99.90
46562;DHT22;32289;42.688;23.330;2023-04-10T13:05:53;8.30;99.90
46562;DHT22;32289;42.688;23.330;2023-04-10T13:09:34;8.80;99.90
46562;DHT22;32289;42.688;23.330;2023-04-10T13:13:15;8.50;99.90
46562;DHT22;32289;42.688;23.330;2023-04-10T13:16:55;8.10;99.90
46562;DHT22;32289;42.688;23.330;2023-04-10T13:20:38;8.30;99.90
46562;DHT22;32289;42.688;23.330;2023-04-10T13:24:19;8.30;99.90
46562;DHT22;32289;42.688;23.330;2023-04-10T13:28:00;9.10;99.90
46562;DHT22;32289;42.688;23.330;2023-04-10T13:31:41;9.50;99.90
46562;DHT22;32289;42.688;23.330;2023-04-10T13:35:21;9.80;99.90
46562;DHT22;32289;42.688;23.330;2023-04-10T13:39:02;10.30;99.90
46562;DHT22;32289;42.688;23.330;2023-04-10T13:42:43;9.70;99.90
46562;DHT22;32289;42.688;23.330;2023-04-10T13:46:24;9.80;99.90
46562;DHT22;32289;42.688;23.330;2023-04-10T13:50:05;10.30;99.90
46562;DHT22;32289;42.688;23.330;2023-04-10T13:53:46;10.50;99.90
46562;DHT22;32289;42.688;23.330;2023-04-10T13:57:27;10.70;99.90
46562;DHT22;32289;42.688;23.330;2023-04-10T14:01:09;11.00;99.90
46562;DHT22;32289;42.688;23.330;2023-04-10T14:04:49;10.90;99.90
46562;DHT22;32289;42.688;23.330;2023-04-10T14:08:30;11.20;99.90
46562;DHT22;32289;42.688;23.330;2023-04-10T14:12:11;10.90;99.60
46562;DHT22;32289;42.688;23.330;2023-04-10T14:15:55;11.20;99.90
46562;DHT22;32289;42.688;23.330;2023-04-10T14:19:36;11.20;99.90
46562;DHT22;32289;42.688;23.330;2023-04-10T14:23:17;11.50;99.90
46562;DHT22;32289;42.688;23.330;2023-04-10T14:26:59;11.10;99.90
46562;DHT22;32289;42.688;23.330;2023-04-10T14:30:41;10.40;99.90
46562;DHT22;32289;42.688;23.330;2023-04-10T14:34:21;10.40;98.30
46562;DHT22;32289;42.688;23.330;2023-04-10T14:38:02;10.00;98.80
46562;DHT22;32289;42.688;23.330;2023-04-10T14:41:43;10.00;99.90
46562;DHT22;32289;42.688;23.330;2023-04-10T14:45:24;9.50;99.90
46562;DHT22;32289;42.688;23.330;2023-04-10T14:49:08;10.20;99.90
46562;DHT22;32289;42.688;23.330;2023-04-10T14:52:50;10.10;99.90
46562;DHT22;32289;42.688;23.330;2023-04-10T14:56:31;9.80;99.90
46562;DHT22;32289;42.688;23.330;2023-04-10T15:00:12;10.40;99.90
46562;DHT22;32289;42.688;23.330;2023-04-10T15:03:54;10.60;99.90
46562;DHT22;32289;42.688;23.330;2023-04-10T15:07:34;10.40;99.90
46562;DHT22;32289;42.688;23.330;2023-04-10T15:11:15;9.90;99.90
46562;DHT22;32289;42.688;23.330;2023-04-10T15:14:56;9.70;99.90
46562;DHT22;32289;42.688;23.330;2023-04-10T15:18:36;9.80;99.90
46562;DHT22;32289;42.688;23.330;2023-04-10T15:22:17;9.80;99.90
46562;DHT22;32289;42.688;23.330;2023-04-10T15:25:58;9.60;99.90
46562;DHT22;32289;42.688;23.330;2023-04-10T15:29:41;9.80;99.90
46562;DHT22;32289;42.688;23.330;2023-04-10T15:33:25;9.80;99.90
46562;DHT22;32289;42.688;23.330;2023-04-10T15:37:05;9.80;99.90
46562;DHT22;32289;42.688;23.330;2023-04-10T15:40:46;9.90;99.90
46562;DHT22;32289;42.688;23.330;2023-04-10T15:44:26;9.90;99.90
46562;DHT22;32289;42.688;23.330;2023-04-10T15:48:07;10.00;99.90
46562;DHT22;32289;42.688;23.330;2023-04-10T15:51:48;10.00;99.60
46562;DHT22;32289;42.688;23.330;2023-04-10T15:55:28;10.00;99.70
46562;DHT22;32289;42.688;23.330;2023-04-10T15:59:09;9.90;99.90
46562;DHT22;32289;42.688;23.330;2023-04-10T16:02:50;10.00;99.90
46562;DHT22;32289;42.688;23.330;2023-04-10T16:06:31;10.30;99.90
46562;DHT22;32289;42.688;23.330;2023-04-10T16:10:12;10.30;98.90
46562;DHT22;32289;42.688;23.330;2023-04-10T16:13:53;10.30;98.30
46562;DHT22;32289;42.688;23.330;2023-04-10T16:17:34;10.20;96.20
46562;DHT22;32289;42.688;23.330;2023-04-10T16:21:15;10.10;96.30
46562;DHT22;32289;42.688;23.330;2023-04-10T16:24:56;10.50;98.40
46562;DHT22;32289;42.688;23.330;2023-04-10T16:28:37;10.20;95.90
46562;DHT22;32289;42.688;23.330;2023-04-10T16:32:18;10.10;96.00
46562;DHT22;32289;42.688;23.330;2023-04-10T16:36:01;10.10;96.30
46562;DHT22;32289;42.688;23.330;2023-04-10T16:39:44;9.50;99.90
46562;DHT22;32289;42.688;23.330;2023-04-10T16:43:24;7.90;99.90
46562;DHT22;32289;42.688;23.330;2023-04-10T16:47:05;7.20;99.90
46562;DHT22;32289;42.688;23.330;2023-04-10T16:50:46;7.30;99.90
46562;DHT22;32289;42.688;23.330;2023-04-10T16:54:27;7.20;99.90
46562;DHT22;32289;42.688;23.330;2023-04-10T16:58:07;7.40;99.90
46562;DHT22;32289;42.688;23.330;2023-04-10T17:01:50;7.40;99.90
46562;DHT22;32289;42.688;23.330;2023-04-10T17:05:34;7.30;99.90
46562;DHT22;32289;42.688;23.330;2023-04-10T17:09:15;7.30;99.90
46562;DHT22;32289;42.688;23.330;2023-04-10T17:12:56;7.40;99.90
46562;DHT22;32289;42.688;23.330;2023-04-10T17:16:37;7.40;99.90
46562;DHT22;32289;42.688;23.330;2023-04-10T17:20:18;7.40;99.90
46562;DHT22;32289;42.688;23.330;2023-04-10T17:23:59;7.60;99.90
46562;DHT22;32289;42.688;23.330;2023-04-10T17:27:39;7.50;99.90
46562;DHT22;32289;42.688;23.330;2023-04-10T17:31:20;7.50;99.90
46562;DHT22;32289;42.688;23.330;2023-04-10T17:35:01;7.30;99.90
46562;DHT22;32289;42.688;23.330;2023-04-10T17:38:41;7.40;99.90
46562;DHT22;32289;42.688;23.330;2023-04-10T17:42:22;7.20;99.90
46562;DHT22;32289;42.688;23.330;2023-04-10T17:46:05;7.30;99.90
46562;DHT22;32289;42.688;23.330;2023-04-10T17:49:46;7.40;99.90
46562;DHT22;32289;42.688;23.330;2023-04-10T17:53:26;7.50;99.90
46562;DHT22;32289;42.688;23.330;2023-04-10T17:57:07;7.70;99.90
46562;DHT22;32289;42.688;23.330;2023-04-10T18:00:48;7.60;99.90
46562;DHT22;32289;42.688;23.330;2023-04-10T18:04:28;7.70;99.90
46562;DHT22;32289;42.688;23.330;2023-04-10T18:08:09;7.70;99.90
46562;DHT22;32289;42.688;23.330;2023-04-10T18:11:50;7.70;99.90
46562;DHT22;32289;42.688;23.330;2023-04-10T18:15:31;7.70;99.90
46562;DHT22;32289;42.688;23.330;2023-04-10T18:19:12;7.90;99.90
46562;DHT22;32289;42.688;23.330;2023-04-10T18:22:52;8.00;99.90
46562;DHT22;32289;42.688;23.330;2023-04-10T18:26:33;8.10;99.90
46562;DHT22;32289;42.688;23.330;2023-04-10T18:30:14;8.40;99.90
46562;DHT22;32289;42.688;23.330;2023-04-10T18:33:56;8.30;99.90
46562;DHT22;32289;42.688;23.330;2023-04-10T18:37:37;8.10;99.90
46562;DHT22;32289;42.688;23.330;2023-04-10T18:41:20;8.10;99.90
46562;DHT22;32289;42.688;23.330;2023-04-10T18:45:00;8.10;99.90
46562;DHT22;32289;42.688;23.330;2023-04-10T18:48:41;8.20;99.90
46562;DHT22;32289;42.688;23.330;2023-04-10T18:52:22;8.30;99.90
46562;DHT22;32289;42.688;23.330;2023-04-10T18:56:03;8.20;99.90
46562;DHT22;32289;42.688;23.330;2023-04-10T18:59:44;8.20;99.90
46562;DHT22;32289;42.688;23.330;2023-04-10T19:03:24;7.90;99.90
46562;DHT22;32289;42.688;23.330;2023-04-10T19:07:05;7.80;99.90
46562;DHT22;32289;42.688;23.330;2023-04-10T19:10:46;7.60;99.90
46562;DHT22;32289;42.688;23.330;2023-04-10T19:14:27;7.90;99.90
46562;DHT22;32289;42.688;23.330;2023-04-10T19:18:08;7.80;99.90
46562;DHT22;32289;42.688;23.330;2023-04-10T19:21:49;7.80;99.90
46562;DHT22;32289;42.688;23.330;2023-04-10T19:25:29;7.50;99.90
46562;DHT22;32289;42.688;23.330;2023-04-10T19:29:10;7.50;99.90
46562;DHT22;32289;42.688;23.330;2023-04-10T19:32:52;7.40;99.90
46562;DHT22;32289;42.688;23.330;2023-04-10T19:36:34;7.30;99.90
46562;DHT22;32289;42.688;23.330;2023-04-10T19:40:17;7.20;99.90
46562;DHT22;32289;42.688;23.330;2023-04-10T19:43:58;7.30;99.90
46562;DHT22;32289;42.688;23.330;2023-04-10T19:47:40;7.30;99.90
46562;DHT22;32289;42.688;23.330;2023-04-10T19:51:20;7.40;99.90
46562;DHT22;32289;42.688;23.330;2023-04-10T19:55:01;7.10;99.90
46562;DHT22;32289;42.688;23.330;2023-04-10T19:58:42;7.00;99.90
46562;DHT22;32289;42.688;23.330;2023-04-10T20:02:23;7.10;99.90
46562;DHT22;32289;42.688;23.330;2023-04-10T20:06:05;7.20;99.90
46562;DHT22;32289;42.688;23.330;2023-04-10T20:09:49;7.10;99.90
46562;DHT22;32289;42.688;23.330;2023-04-10T20:13:30;7.10;99.90
46562;DHT22;32289;42.688;23.330;2023-04-10T20:17:11;7.00;99.90
46562;DHT22;32289;42.688;23.330;2023-04-10T20:20:52;7.00;99.90
46562;DHT22;32289;42.688;23.330;2023-04-10T20:24:32;7.20;99.90
46562;DHT22;32289;42.688;23.330;2023-04-10T20:28:14;7.40;99.90
46562;DHT22;32289;42.688;23.330;2023-04-10T20:31:56;7.30;99.90
46562;DHT22;32289;42.688;23.330;2023-04-10T20:35:36;7.30;99.90
46562;DHT22;32289;42.688;23.330;2023-04-10T20:39:17;7.40;99.90
46562;DHT22;32289;42.688;23.330;2023-04-10T20:42:58;7.30;99.90
46562;DHT22;32289;42.688;23.330;2023-04-10T20:46:38;7.40;99.90
46562;DHT22;32289;42.688;23.330;2023-04-10T20:50:22;7.40;99.90
46562;DHT22;32289;42.688;23.330;2023-04-10T20:54:04;7.30;99.90
46562;DHT22;32289;42.688;23.330;2023-04-10T20:57:45;7.20;99.90
46562;DHT22;32289;42.688;23.330;2023-04-10T21:01:26;7.20;99.90
46562;DHT22;32289;42.688;23.330;2023-04-10T21:05:07;7.20;99.90
46562;DHT22;32289;42.688;23.330;2023-04-10T21:08:48;7.20;99.90
46562;DHT22;32289;42.688;23.330;2023-04-10T21:12:28;7.20;99.90
46562;DHT22;32289;42.688;23.330;2023-04-10T21:16:11;7.20;99.90
46562;DHT22;32289;42.688;23.330;2023-04-10T21:19:51;7.20;99.90
46562;DHT22;32289;42.688;23.330;2023-04-10T21:23:32;7.10;99.90
46562;DHT22;32289;42.688;23.330;2023-04-10T21:27:13;7.00;99.90
46562;DHT22;32289;42.688;23.330;2023-04-10T21:30:53;7.00;99.90
46562;DHT22;32289;42.688;23.330;2023-04-10T21:34:34;7.00;99.90
46562;DHT22;32289;42.688;23.330;2023-04-10T21:38:15;7.00;99.90
46562;DHT22;32289;42.688;23.330;2023-04-10T21:41:55;7.00;99.90
46562;DHT22;32289;42.688;23.330;2023-04-10T21:45:37;6.90;99.90
46562;DHT22;32289;42.688;23.330;2023-04-10T21:49:18;6.90;99.90
46562;DHT22;32289;42.688;23.330;2023-04-10T21:52:58;7.00;99.90
46562;DHT22;32289;42.688;23.330;2023-04-10T21:56:39;6.80;99.90
46562;DHT22;32289;42.688;23.330;2023-04-10T22:00:21;6.90;99.90
46562;DHT22;32289;42.688;23.330;2023-04-10T22:04:01;6.90;99.90
46562;DHT22;32289;42.688;23.330;2023-04-10T22:07:42;6.70;99.90
46562;DHT22;32289;42.688;23.330;2023-04-10T22:11:23;6.70;99.90
46562;DHT22;32289;42.688;23.330;2023-04-10T22:15:04;6.70;99.90
46562;DHT22;32289;42.688;23.330;2023-04-10T22:18:47;6.60;99.90
46562;DHT22;32289;42.688;23.330;2023-04-10T22:22:27;6.60;99.90
46562;DHT22;32289;42.688;23.330;2023-04-10T22:26:08;6.50;99.90
46562;DHT22;32289;42.688;23.330;2023-04-10T22:29:49;6.50;99.90
46562;DHT22;32289;42.688;23.330;2023-04-10T22:33:32;6.50;99.90
46562;DHT22;32289;42.688;23.330;2023-04-10T22:37:13;6.60;99.90
46562;DHT22;32289;42.688;23.330;2023-04-10T22:40:54;6.60;99.90
46562;DHT22;32289;42.688;23.330;2023-04-10T22:44:35;6.70;99.90
46562;DHT22;32289;42.688;23.330;2023-04-10T22:48:16;6.80;99.90
46562;DHT22;32289;42.688;23.330;2023-04-10T22:51:56;6.80;99.90
46562;DHT22;32289;42.688;23.330;2023-04-10T22:55:38;6.80;99.90
46562;DHT22;32289;42.688;23.330;2023-04-10T22:59:18;6.80;99.90
46562;DHT22;32289;42.688;23.330;2023-04-10T23:02:59;6.80;99.90
46562;DHT22;32289;42.688;23.330;2023-04-10T23:06:40;6.80;99.90
46562;DHT22;32289;42.688;23.330;2023-04-10T23:10:21;6.80;99.90
46562;DHT22;32289;42.688;23.330;2023-04-10T23:14:01;6.90;99.90
46562;DHT22;32289;42.688;23.330;2023-04-10T23:17:43;6.80;99.90
46562;DHT22;32289;42.688;23.330;2023-04-10T23:21:23;6.80;99.90
46562;DHT22;32289;42.688;23.330;2023-04-10T23:25:04;6.90;99.90
46562;DHT22;32289;42.688;23.330;2023-04-10T23:28:46;6.90;99.90
46562;DHT22;32289;42.688;23.330;2023-04-10T23:32:26;7.00;99.90
46562;DHT22;32289;42.688;23.330;2023-04-10T23:36:07;6.90;99.90